createdAt,value
2023-02-01T00:02:14.841Z,102082.05
2023-02-01T00:04:44.569Z,102077.47
2023-02-01T00:07:14.647Z,102074.56
2023-02-01T00:09:44.403Z,102056.98
2023-02-01T00:12:13.865Z,102044.59
2023-02-01T00:14:43.608Z,102041.66
2023-02-01T00:17:13.414Z,102038.24
2023-02-01T00:19:42.869Z,102032.33
2023-02-01T00:22:13.895Z,102036.38
2023-02-01T00:24:43.709Z,102041.03
2023-02-01T00:27:15.120Z,102037.10
2023-02-01T00:29:46.155Z,102043.74
2023-02-01T00:32:16.002Z,102036.23
2023-02-01T00:34:46.057Z,102047.36
2023-02-01T00:37:15.842Z,102048.44
2023-02-01T00:39:45.982Z,102039.87
2023-02-01T00:42:16.274Z,102034.61
2023-02-01T00:44:46.033Z,102034.98
2023-02-01T00:47:16.065Z,102038.94
2023-02-01T00:49:45.942Z,102033.45
2023-02-01T00:52:15.762Z,102033.45
2023-02-01T00:54:45.497Z,102042.73
2023-02-01T00:57:15.309Z,102033.11
2023-02-01T00:59:45.069Z,102024.48
2023-02-01T01:02:15.383Z,102027.84
2023-02-01T01:04:45.257Z,102026.85
2023-02-01T01:07:15.033Z,102028.49
2023-02-01T01:09:44.840Z,102026.34
2023-02-01T01:12:14.592Z,102026.91
2023-02-01T01:14:44.369Z,102026.75
2023-02-01T01:17:14.197Z,102031.62
2023-02-01T01:19:43.988Z,102021.36
2023-02-01T01:22:14.467Z,102021.36
2023-02-01T01:24:44.002Z,102017.58
2023-02-01T01:27:13.843Z,102028.37
2023-02-01T01:29:43.974Z,102018.04
2023-02-01T01:32:13.423Z,102020.09
2023-02-01T01:34:43.396Z,102020.60
2023-02-01T01:37:13.566Z,102020.25
2023-02-01T01:39:43.356Z,102017.01
2023-02-01T01:42:14.340Z,102025.42
2023-02-01T01:45:04.934Z,102013.05
2023-02-01T01:47:42.295Z,102013.25
2023-02-01T01:50:13.333Z,102013.69
2023-02-01T01:52:44.656Z,102011.69
2023-02-01T01:55:16.279Z,102015.89
2023-02-01T01:57:49.247Z,102011.59
2023-02-01T02:00:21.605Z,102024.91
2023-02-01T02:03:01.173Z,102022.77
2023-02-01T02:05:31.773Z,102017.84
2023-02-01T02:08:02.847Z,102010.98
2023-02-01T02:10:51.560Z,102011.23
2023-02-01T02:13:21.653Z,102001.62
2023-02-01T02:16:10.665Z,102003.22
2023-02-01T02:18:43.534Z,101991.89
2023-02-01T02:21:16.381Z,101984.89
2023-02-01T02:24:09.263Z,101985.28
2023-02-01T02:26:50.918Z,101983.28
2023-02-01T02:29:45.130Z,101980.69
2023-02-01T02:32:26.637Z,101977.44
2023-02-01T02:34:59.741Z,101982.14
2023-02-01T02:37:38.459Z,101989.19
2023-02-01T02:40:11.094Z,101984.70
2023-02-01T02:43:16.506Z,101988.25
2023-02-01T02:46:15.695Z,101984.05
2023-02-01T02:48:48.543Z,101977.72
2023-02-01T02:51:53.901Z,101978.36
2023-02-01T02:54:46.981Z,101977.91
2023-02-01T02:57:49.646Z,101974.02
2023-02-01T03:00:39.831Z,101954.05
2023-02-01T03:03:27.506Z,101950.97
2023-02-01T03:05:57.781Z,101958.81
2023-02-01T03:08:30.056Z,101962.94
2023-02-01T03:11:11.016Z,101953.30
2023-02-01T03:13:49.722Z,101955.08
2023-02-01T03:16:37.098Z,101952.57
2023-02-01T03:19:12.455Z,101948.03
2023-02-01T03:21:45.104Z,101940.19
2023-02-01T03:24:28.646Z,101920.07
2023-02-01T03:27:01.555Z,101920.07
2023-02-01T03:29:34.701Z,101920.38
2023-02-01T03:32:04.538Z,101931.06
2023-02-01T03:34:35.278Z,101919.73
2023-02-01T03:37:08.168Z,101910.98
2023-02-01T03:39:49.759Z,101910.98
2023-02-01T03:42:22.550Z,101924.50
2023-02-01T03:44:58.422Z,101918.88
2023-02-01T03:47:31.517Z,101918.09
2023-02-01T03:50:04.615Z,101938.39
2023-02-01T03:52:55.992Z,101925.72
2023-02-01T03:55:28.608Z,101923.75
2023-02-01T03:58:04.882Z,101934.67
2023-02-01T04:00:35.039Z,101928.13
2023-02-01T04:03:07.525Z,101918.61
2023-02-01T04:05:37.313Z,101925.13
2023-02-01T04:08:09.112Z,101934.67
2023-02-01T04:10:39.014Z,101935.72
2023-02-01T04:13:09.098Z,101935.72
2023-02-01T04:15:38.838Z,101940.11
2023-02-01T04:18:08.968Z,101944.11
2023-02-01T04:20:38.803Z,101936.47
2023-02-01T04:23:08.828Z,101933.77
2023-02-01T04:25:39.064Z,101943.81
2023-02-01T04:28:11.300Z,101945.11
2023-02-01T04:30:41.407Z,101943.53
2023-02-01T04:33:12.938Z,101943.20
2023-02-01T04:35:43.050Z,101936.13
2023-02-01T04:38:13.055Z,101937.22
2023-02-01T04:40:42.885Z,101943.75
2023-02-01T04:43:12.645Z,101939.63
2023-02-01T04:45:42.688Z,101949.94
2023-02-01T04:48:14.780Z,101949.94
2023-02-01T04:50:48.297Z,101955.14
2023-02-01T04:53:18.315Z,101951.11
2023-02-01T04:55:50.842Z,101945.55
2023-02-01T04:58:20.617Z,101945.55
2023-02-01T05:00:50.938Z,101944.30
2023-02-01T05:03:21.128Z,101954.80
2023-02-01T05:05:51.308Z,101940.49
2023-02-01T05:08:22.486Z,101940.49
2023-02-01T05:10:52.214Z,101935.27
2023-02-01T05:13:39.680Z,101925.02
2023-02-01T05:16:09.696Z,101922.23
2023-02-01T05:18:39.569Z,101923.52
2023-02-01T05:21:09.768Z,101929.05
2023-02-01T05:23:41.235Z,101923.28
2023-02-01T05:26:10.992Z,101933.23
2023-02-01T05:28:40.766Z,101937.20
2023-02-01T05:31:13.831Z,101932.18
2023-02-01T05:33:43.983Z,101926.02
2023-02-01T05:36:15.545Z,101919.98
2023-02-01T05:38:45.463Z,101915.73
2023-02-01T05:41:15.301Z,101929.70
2023-02-01T05:43:45.168Z,101933.69
2023-02-01T05:46:17.038Z,101933.84
2023-02-01T05:48:46.924Z,101931.95
2023-02-01T05:51:17.070Z,101931.94
2023-02-01T05:53:47.133Z,101938.41
2023-02-01T05:56:17.103Z,101934.42
2023-02-01T05:58:46.856Z,101938.22
2023-02-01T06:01:16.931Z,101939.91
2023-02-01T06:03:46.837Z,101939.91
2023-02-01T06:06:20.011Z,101945.45
2023-02-01T06:08:50.038Z,101944.75
2023-02-01T06:11:31.785Z,101953.84
2023-02-01T06:13:51.307Z,101937.13
2023-02-01T06:16:21.474Z,101937.13
2023-02-01T06:18:51.999Z,101943.02
2023-02-01T06:21:23.458Z,101936.23
2023-02-01T06:23:55.135Z,101938.55
2023-02-01T06:26:25.053Z,101939.33
2023-02-01T06:28:56.177Z,101936.55
2023-02-01T06:31:26.771Z,101937.47
2023-02-01T06:33:57.089Z,101939.11
2023-02-01T06:36:26.933Z,101952.87
2023-02-01T06:39:00.183Z,101951.86
2023-02-01T06:41:29.961Z,101958.55
2023-02-01T06:44:00.124Z,101965.33
2023-02-01T06:46:30.033Z,101956.90
2023-02-01T06:49:00.248Z,101958.44
2023-02-01T06:51:30.606Z,101962.20
2023-02-01T06:54:00.918Z,101961.77
2023-02-01T06:56:32.352Z,101962.37
2023-02-01T06:59:03.905Z,101959.75
2023-02-01T07:01:33.652Z,101948.95
2023-02-01T07:04:03.699Z,101954.37
2023-02-01T07:06:33.786Z,101944.08
2023-02-01T07:09:03.560Z,101950.72
2023-02-01T07:11:33.795Z,101952.28
2023-02-01T07:14:03.952Z,101956.50
2023-02-01T07:16:33.848Z,101960.69
2023-02-01T07:19:04.129Z,101961.00
2023-02-01T07:21:34.322Z,101958.23
2023-02-01T07:24:04.648Z,101965.83
2023-02-01T07:26:34.556Z,101960.16
2023-02-01T07:29:04.735Z,101970.59
2023-02-01T07:31:34.867Z,101970.19
2023-02-01T07:34:04.688Z,101967.39
2023-02-01T07:36:35.431Z,101973.67
2023-02-01T07:39:08.016Z,101963.97
2023-02-01T07:41:37.789Z,101971.53
2023-02-01T07:44:07.943Z,101977.31
2023-02-01T07:46:39.646Z,101978.30
2023-02-01T07:49:09.513Z,101973.16
2023-02-01T07:51:39.384Z,101966.53
2023-02-01T07:54:09.128Z,101972.98
2023-02-01T07:56:38.934Z,101979.26
2023-02-01T07:59:08.712Z,101968.23
2023-02-01T08:01:38.534Z,101976.05
2023-02-01T08:04:08.278Z,101978.56
2023-02-01T08:06:38.057Z,101971.45
2023-02-01T08:09:12.169Z,101967.38
2023-02-01T08:11:42.050Z,101979.03
2023-02-01T08:14:11.965Z,101980.38
2023-02-01T08:16:41.823Z,101982.52
2023-02-01T08:19:11.718Z,101989.45
2023-02-01T08:21:41.328Z,101997.42
2023-02-01T08:24:13.458Z,101995.02
2023-02-01T08:26:43.452Z,101990.33
2023-02-01T08:29:14.767Z,101995.37
2023-02-01T08:31:44.555Z,101993.58
2023-02-01T08:34:15.560Z,101990.81
2023-02-01T08:36:45.616Z,101992.51
2023-02-01T08:39:15.768Z,101995.78
2023-02-01T08:41:47.550Z,101995.78
2023-02-01T08:44:18.655Z,101989.30
2023-02-01T08:46:48.452Z,101987.35
2023-02-01T08:49:18.235Z,101989.91
2023-02-01T08:51:48.050Z,101963.71
2023-02-01T08:54:19.020Z,101976.83
2023-02-01T08:56:48.826Z,101980.77
2023-02-01T08:59:19.058Z,101971.69
2023-02-01T09:01:49.225Z,101975.47
2023-02-01T09:04:19.865Z,101977.46
2023-02-01T09:06:49.728Z,101979.67
2023-02-01T09:09:19.586Z,101967.94
2023-02-01T09:11:51.105Z,101973.33
2023-02-01T09:14:20.839Z,101967.58
2023-02-01T09:16:50.618Z,101957.19
2023-02-01T09:19:26.243Z,101961.68
2023-02-01T09:21:52.118Z,101970.33
2023-02-01T09:24:21.846Z,101963.03
2023-02-01T09:26:52.581Z,101963.09
2023-02-01T09:29:22.364Z,101963.09
2023-02-01T09:32:02.820Z,101970.12
2023-02-01T09:34:23.761Z,101977.22
2023-02-01T09:36:54.101Z,101967.04
2023-02-01T09:39:23.709Z,101951.08
2023-02-01T09:42:20.265Z,101948.42
2023-02-01T09:44:55.506Z,101958.03
2023-02-01T09:47:27.247Z,101944.11
2023-02-01T09:50:05.939Z,101949.48
2023-02-01T09:52:47.904Z,101960.06
2023-02-01T09:55:39.609Z,101954.57
2023-02-01T09:58:20.326Z,101951.71
2023-02-01T10:01:01.593Z,101952.16
2023-02-01T10:03:34.449Z,101948.45
2023-02-01T10:06:08.825Z,101949.27
2023-02-01T10:09:00.161Z,101954.87
2023-02-01T10:12:04.655Z,101979.02
2023-02-01T10:15:04.331Z,101961.06
2023-02-01T10:17:45.611Z,101967.86
2023-02-01T10:20:27.947Z,101957.42
2023-02-01T10:23:32.955Z,101960.30
2023-02-01T10:25:56.943Z,101960.13
2023-02-01T10:28:27.553Z,101958.27
2023-02-01T10:31:00.262Z,101968.45
2023-02-01T10:33:36.015Z,101954.63
2023-02-01T10:36:18.159Z,101957.83
2023-02-01T10:38:48.756Z,101946.66
2023-02-01T10:41:21.844Z,101946.66
2023-02-01T10:43:54.735Z,101946.94
2023-02-01T10:46:26.611Z,101947.45
2023-02-01T10:49:00.144Z,101951.58
2023-02-01T10:52:03.017Z,101940.78
2023-02-01T10:54:40.041Z,101937.03
2023-02-01T10:57:12.454Z,101941.18
2023-02-01T10:59:44.885Z,101919.78
2023-02-01T11:02:31.215Z,101934.70
2023-02-01T11:05:13.372Z,101940.94
2023-02-01T11:07:57.121Z,101926.19
2023-02-01T11:10:41.947Z,101926.19
2023-02-01T11:13:19.775Z,101925.33
2023-02-01T11:15:52.585Z,101920.50
2023-02-01T11:18:24.411Z,101922.66
2023-02-01T11:20:56.015Z,101919.94
2023-02-01T11:23:28.484Z,101917.63
2023-02-01T11:26:01.219Z,101910.72
2023-02-01T11:28:34.012Z,101918.80
2023-02-01T11:31:07.004Z,101906.66
2023-02-01T11:33:39.907Z,101912.53
2023-02-01T11:36:12.403Z,101907.67
2023-02-01T11:38:43.931Z,101926.05
2023-02-01T11:41:28.406Z,101901.52
2023-02-01T11:44:00.806Z,101894.94
2023-02-01T11:46:35.590Z,101886.02
2023-02-01T11:49:23.427Z,101903.03
2023-02-01T11:51:58.764Z,101907.52
2023-02-01T11:54:55.528Z,101893.69
2023-02-01T11:57:36.485Z,101901.38
2023-02-01T12:00:10.179Z,101910.08
2023-02-01T12:02:46.818Z,101909.18
2023-02-01T12:05:31.693Z,101906.48
2023-02-01T12:08:19.589Z,101900.93
2023-02-01T12:11:10.739Z,101896.65
2023-02-01T12:13:52.091Z,101901.56
2023-02-01T12:16:47.283Z,101896.55
2023-02-01T12:19:22.703Z,101886.62
2023-02-01T12:22:18.600Z,101890.84
2023-02-01T12:25:01.243Z,101886.56
2023-02-01T12:27:34.013Z,101877.35
2023-02-01T12:30:13.480Z,101889.61
2023-02-01T12:33:02.721Z,101886.48
2023-02-01T12:35:40.965Z,101889.52
2023-02-01T12:38:35.498Z,101884.02
2023-02-01T12:41:24.468Z,101905.23
2023-02-01T12:44:00.085Z,101881.16
2023-02-01T12:46:41.725Z,101879.52
2023-02-01T12:49:20.014Z,101879.39
2023-02-01T12:51:51.994Z,101896.88
2023-02-01T12:54:45.489Z,101893.77
2023-02-01T12:57:18.583Z,101878.09
2023-02-01T12:59:53.825Z,101876.66
2023-02-01T13:02:30.669Z,101866.14
2023-02-01T13:05:16.504Z,101868.53
2023-02-01T13:07:51.720Z,101866.77
2023-02-01T13:10:42.029Z,101864.66
2023-02-01T13:13:20.617Z,101860.14
2023-02-01T13:15:53.427Z,101866.05
2023-02-01T13:18:27.391Z,101866.09
2023-02-01T13:21:11.457Z,101865.86
2023-02-01T13:23:43.874Z,101855.95
2023-02-01T13:26:14.527Z,101861.42
2023-02-01T13:28:49.714Z,101867.23
2023-02-01T13:31:38.978Z,101869.48
2023-02-01T13:34:27.968Z,101855.05
2023-02-01T13:37:21.432Z,101852.66
2023-02-01T13:39:54.186Z,101857.73
2023-02-01T13:42:26.729Z,101865.06
2023-02-01T13:45:05.812Z,101857.20
2023-02-01T13:47:44.420Z,101868.75
2023-02-01T13:50:26.754Z,101862.64
2023-02-01T13:53:07.908Z,101873.77
2023-02-01T13:55:42.686Z,101875.33
2023-02-01T13:58:32.969Z,101879.00
2023-02-01T14:01:25.001Z,101878.27
2023-02-01T14:04:00.808Z,101882.02
2023-02-01T14:06:33.418Z,101887.66
2023-02-01T14:09:09.286Z,101885.41
2023-02-01T14:11:48.432Z,101885.95
2023-02-01T14:14:20.960Z,101885.58
2023-02-01T14:16:59.379Z,101907.87
2023-02-01T14:19:32.466Z,101907.87
2023-02-01T14:22:21.714Z,101901.52
2023-02-01T14:24:56.925Z,101904.51
2023-02-01T14:27:33.726Z,101904.58
2023-02-01T14:30:06.212Z,101900.44
2023-02-01T14:32:39.376Z,101901.01
2023-02-01T14:35:11.550Z,101904.61
2023-02-01T14:37:42.109Z,101897.30
2023-02-01T14:40:17.828Z,101897.30
2023-02-01T14:42:50.420Z,101896.65
2023-02-01T14:45:26.293Z,101891.49
2023-02-01T14:47:58.946Z,101895.97
2023-02-01T14:50:37.896Z,101898.03
2023-02-01T14:53:17.340Z,101896.08
2023-02-01T14:56:08.250Z,101892.20
2023-02-01T14:59:02.745Z,101904.67
2023-02-01T15:01:39.877Z,101898.35
2023-02-01T15:04:22.951Z,101892.72
2023-02-01T15:07:08.110Z,101905.83
2023-02-01T15:09:49.916Z,101879.03
2023-02-01T15:12:23.726Z,101890.81
2023-02-01T15:15:18.171Z,101884.33
2023-02-01T15:18:01.682Z,101892.03
2023-02-01T15:20:34.191Z,101893.81
2023-02-01T15:23:06.457Z,101897.78
2023-02-01T15:25:39.574Z,101893.84
2023-02-01T15:28:15.416Z,101893.20
2023-02-01T15:31:03.283Z,101896.66
2023-02-01T15:33:33.807Z,101904.51
2023-02-01T15:36:13.620Z,101899.67
2023-02-01T15:38:46.010Z,101899.16
2023-02-01T15:41:23.795Z,101899.07
2023-02-01T15:43:59.462Z,101897.30
2023-02-01T15:49:22.144Z,101915.13
2023-02-01T15:51:53.060Z,101906.42
2023-02-01T15:54:28.398Z,101913.59
2023-02-01T15:57:00.016Z,101914.58
2023-02-01T15:59:41.596Z,101928.66
2023-02-01T16:02:41.219Z,101924.36
2023-02-01T16:05:39.386Z,101933.25
2023-02-01T16:08:16.089Z,101923.45
2023-02-01T16:10:48.566Z,101929.56
2023-02-01T16:13:21.276Z,101945.48
2023-02-01T16:15:51.347Z,101938.31
2023-02-01T16:18:22.055Z,101938.85
2023-02-01T16:20:51.787Z,101940.27
2023-02-01T16:23:21.540Z,101949.59
2023-02-01T16:25:51.320Z,101943.24
2023-02-01T16:28:21.057Z,101952.88
2023-02-01T16:30:51.017Z,101950.84
2023-02-01T16:33:22.979Z,101951.56
2023-02-01T16:35:54.287Z,101948.16
2023-02-01T16:38:24.633Z,101946.38
2023-02-01T16:40:54.790Z,101952.92
2023-02-01T16:43:27.222Z,101959.33
2023-02-01T16:45:59.683Z,101956.39
2023-02-01T16:48:34.222Z,101965.91
2023-02-01T16:51:08.527Z,101969.65
2023-02-01T16:53:52.366Z,101970.83
2023-02-01T16:56:22.020Z,101969.69
2023-02-01T16:58:51.862Z,101965.10
2023-02-01T17:01:22.390Z,101971.05
2023-02-01T17:03:52.595Z,101975.25
2023-02-01T17:06:25.165Z,101974.91
2023-02-01T17:08:59.127Z,101976.09
2023-02-01T17:11:31.394Z,101982.27
2023-02-01T17:14:15.605Z,101985.45
2023-02-01T17:16:48.224Z,101994.89
2023-02-01T17:19:26.231Z,101991.33
2023-02-01T17:21:59.387Z,101999.53
2023-02-01T17:24:42.723Z,101999.35
2023-02-01T17:27:04.535Z,101993.92
2023-02-01T17:29:34.343Z,101992.68
2023-02-01T17:32:07.054Z,101992.68
2023-02-01T17:34:36.933Z,101997.38
2023-02-01T17:37:10.946Z,102005.70
2023-02-01T17:39:55.658Z,102000.44
2023-02-01T17:42:26.987Z,102006.94
2023-02-01T17:45:02.585Z,102007.97
2023-02-01T17:47:33.390Z,102011.31
2023-02-01T17:50:03.165Z,102018.77
2023-02-01T17:52:32.995Z,102014.02
2023-02-01T17:55:04.726Z,102014.42
2023-02-01T17:57:34.790Z,102014.25
2023-02-01T18:00:07.718Z,102013.34
2023-02-01T18:02:37.590Z,102005.75
2023-02-01T18:05:20.778Z,102007.41
2023-02-01T18:07:51.035Z,102004.00
2023-02-01T18:10:20.905Z,102007.35
2023-02-01T18:12:50.751Z,102007.30
2023-02-01T18:15:23.505Z,101996.19
2023-02-01T18:17:53.473Z,102006.05
2023-02-01T18:20:25.983Z,101997.83
2023-02-01T18:22:55.783Z,101996.70
2023-02-01T18:25:27.707Z,101986.45
2023-02-01T18:27:58.468Z,101973.59
2023-02-01T18:30:31.292Z,101977.95
2023-02-01T18:33:02.293Z,101973.22
2023-02-01T18:35:33.571Z,101983.10
2023-02-01T18:38:03.436Z,101980.16
2023-02-01T18:40:39.314Z,101970.71
2023-02-01T18:43:10.631Z,101983.80
2023-02-01T18:45:42.939Z,101982.54
2023-02-01T18:48:14.048Z,101973.32
2023-02-01T18:50:46.049Z,101977.51
2023-02-01T18:53:19.933Z,101972.08
2023-02-01T18:55:49.823Z,101977.34
2023-02-01T18:58:19.738Z,101982.09
2023-02-01T19:00:49.496Z,101986.80
2023-02-01T19:03:19.413Z,101985.11
2023-02-01T19:05:49.676Z,101991.05
2023-02-01T19:08:19.576Z,101995.48
2023-02-01T19:10:49.350Z,101996.92
2023-02-01T19:13:20.791Z,101999.03
2023-02-01T19:15:50.561Z,101997.94
2023-02-01T19:18:23.257Z,101994.72
2023-02-01T19:20:55.011Z,102009.60
2023-02-01T19:23:24.828Z,102005.75
2023-02-01T19:25:54.615Z,102010.01
2023-02-01T19:28:24.246Z,102010.68
2023-02-01T19:31:05.691Z,102012.33
2023-02-01T19:33:35.819Z,102001.34
2023-02-01T19:36:09.859Z,101999.85
2023-02-01T19:38:39.821Z,102002.09
2023-02-01T19:41:09.915Z,101998.63
2023-02-01T19:43:39.904Z,102002.53
2023-02-01T19:46:11.872Z,102001.39
2023-02-01T19:48:41.683Z,101999.85
2023-02-01T19:51:12.796Z,102007.88
2023-02-01T19:53:42.607Z,102005.42
2023-02-01T19:56:12.440Z,102005.48
2023-02-01T19:58:42.287Z,102004.23
2023-02-01T20:01:12.719Z,102002.77
2023-02-01T20:03:42.628Z,102006.19
2023-02-01T20:06:13.204Z,101996.75
2023-02-01T20:08:43.358Z,102002.36
2023-02-01T20:11:13.291Z,102003.29
2023-02-01T20:13:43.053Z,102001.12
2023-02-01T20:16:12.658Z,102004.30
2023-02-01T20:18:42.459Z,102012.46
2023-02-01T20:21:12.886Z,102016.63
2023-02-01T20:23:44.001Z,102019.60
2023-02-01T20:26:15.186Z,102023.05
2023-02-01T20:28:44.959Z,102031.83
2023-02-01T20:31:15.527Z,102034.94
2023-02-01T20:33:45.368Z,102038.12
2023-02-01T20:36:15.075Z,102040.67
2023-02-01T20:38:44.923Z,102032.95
2023-02-01T20:41:14.766Z,102032.95
2023-02-01T20:43:45.009Z,102033.50
2023-02-01T20:46:15.127Z,102034.98
2023-02-01T20:48:46.862Z,102033.67
2023-02-01T20:51:19.056Z,102037.70
2023-02-01T20:53:53.698Z,102039.24
2023-02-01T20:56:23.860Z,102047.14
2023-02-01T20:58:53.443Z,102043.19
2023-02-01T21:01:23.344Z,102054.88
2023-02-01T21:03:53.121Z,102046.75
2023-02-01T21:06:23.108Z,102053.30
2023-02-01T21:08:52.866Z,102052.32
2023-02-01T21:11:22.705Z,102059.84
2023-02-01T21:13:52.548Z,102065.11
2023-02-01T21:16:23.430Z,102049.48
2023-02-01T21:18:54.188Z,102062.31
2023-02-01T21:21:24.019Z,102068.72
2023-02-01T21:23:55.323Z,102058.64
2023-02-01T21:26:26.678Z,102065.72
2023-02-01T21:28:57.303Z,102063.38
2023-02-01T21:31:27.067Z,102059.12
2023-02-01T21:33:57.863Z,102063.41
2023-02-01T21:36:29.256Z,102065.41
2023-02-01T21:39:00.763Z,102064.02
2023-02-01T21:41:50.605Z,102070.13
2023-02-01T21:44:20.286Z,102077.83
2023-02-01T21:46:50.486Z,102085.73
2023-02-01T21:49:20.308Z,102085.98
2023-02-01T21:51:50.247Z,102085.86
2023-02-01T21:54:20.029Z,102084.28
2023-02-01T21:56:49.848Z,102099.00
2023-02-01T21:59:19.683Z,102104.95
2023-02-01T22:01:49.441Z,102094.36
2023-02-01T22:04:19.403Z,102091.26
2023-02-01T22:06:49.174Z,102099.97
2023-02-01T22:09:21.727Z,102101.30
2023-02-01T22:11:52.859Z,102104.89
2023-02-01T22:14:22.754Z,102102.73
2023-02-01T22:16:52.840Z,102111.66
2023-02-01T22:19:22.867Z,102106.61
2023-02-01T22:21:52.942Z,102106.61
2023-02-01T22:24:22.849Z,102115.53
2023-02-01T22:26:52.627Z,102120.69
2023-02-01T22:29:23.750Z,102110.61
2023-02-01T22:31:53.779Z,102109.67
2023-02-01T22:34:23.389Z,102104.23
2023-02-01T22:36:53.146Z,102112.42
2023-02-01T22:39:24.064Z,102110.09
2023-02-01T22:41:54.102Z,102115.75
2023-02-01T22:44:23.798Z,102115.88
2023-02-01T22:46:53.945Z,102121.61
2023-02-01T22:49:23.728Z,102114.51
2023-02-01T22:51:53.575Z,102106.53
2023-02-01T22:54:23.222Z,102113.62
2023-02-01T22:56:53.149Z,102109.97
2023-02-01T22:59:23.468Z,102111.87
2023-02-01T23:01:53.224Z,102116.39
2023-02-01T23:04:22.768Z,102119.48
2023-02-01T23:06:52.837Z,102121.70
2023-02-01T23:09:26.480Z,102126.58
2023-02-01T23:11:56.351Z,102134.63
2023-02-01T23:14:26.011Z,102139.30
2023-02-01T23:16:55.907Z,102131.17
2023-02-01T23:19:25.767Z,102133.95
2023-02-01T23:21:55.519Z,102141.20
2023-02-01T23:24:25.289Z,102145.94
2023-02-01T23:26:55.177Z,102142.88
2023-02-01T23:29:25.011Z,102147.20
2023-02-01T23:31:54.790Z,102148.29
2023-02-01T23:34:24.324Z,102141.84
2023-02-01T23:36:54.150Z,102146.50
2023-02-01T23:39:24.338Z,102139.36
2023-02-01T23:41:54.099Z,102147.20
2023-02-01T23:44:23.577Z,102150.72
2023-02-01T23:46:53.405Z,102145.20
2023-02-01T23:49:23.542Z,102148.73
2023-02-01T23:51:53.720Z,102148.73
2023-02-01T23:54:24.216Z,102149.86
2023-02-01T23:56:55.138Z,102148.61
2023-02-01T23:59:28.090Z,102151.11
